Latest Weather Observations for Warracknabeal Airport

IDV60801

Issued at 10:12 am EST Sunday 2 April 2023 (issued every 10 minutes, with the page automatically refreshed every 10 minutes)

About weather observations | Map of weather stations | Latest weather observations for VIC | Other Formats
Station Details ID: 078018 Name: WARRACKNABEAL AIRPORT Lat: -36.32 Lon: 142.42 Height: 118.3 m
Data from the previous 72 hours. | See also: Recent months at Warracknabeal Airport
Date/Time
EST
Temp
°C
App
Temp
°C
Dew
Point
°C
Rel
Hum
%
Delta-T
°C
Wind Press
QNH
hPa
Press
MSL
hPa
Rain since
9am
mm
Dir  Spd
km/h
Gust
km/h
Spd
kts
Gust
kts
02/10:00am 15.7 10.9 5.6 51 4.8 SSE 20 30 11 16 1021.5 1021.4 0.0
02/09:30am 14.5 10.0 6.8 60 3.8 SSE 20 28 11 15 1021.6 1021.5 0.0
02/09:00am 13.1 8.9 7.3 68 2.8 SSE 19 26 10 14 1021.5 1021.4 0.0
02/08:30am 11.1 7.1 6.8 75 2.1 S 17 22 9 12 1021.4 1021.3 0.0
02/08:00am 8.7 5.0 6.2 84 1.1 SSW 15 19 8 10 1021.3 1021.2 0.0
02/07:30am 6.9 3.4 5.4 90 0.7 SSW 13 15 7 8 1021.1 1021.0 0.0
02/07:00am 5.9 2.2 4.7 92 0.5 SSW 13 15 7 8 1021.0 1020.9 0.0
02/06:30am 5.6 1.5 4.1 90 0.6 SSW 15 17 8 9 1020.7 1020.6 0.0
02/06:00am 5.8 2.1 4.3 90 0.6 SSW 13 17 7 9 1020.6 1020.5 0.0
02/05:30am 6.0 1.9 4.5 90 0.6 SSW 15 15 8 8 1020.3 1020.2 0.0
02/05:00am 6.1 2.4 4.6 90 0.6 S 13 15 7 8 1020.2 1020.1 0.0
02/04:30am 6.5 2.8 4.7 88 0.8 S 13 17 7 9 1020.2 1020.1 0.0
02/04:00am 7.0 3.4 5.0 87 0.9 SSE 13 19 7 10 1020.2 1020.1 0.0
02/03:30am 7.1 3.5 4.9 86 1.0 S 13 17 7 9 1020.3 1020.2 0.0
02/03:00am 7.4 3.4 4.9 84 1.1 S 15 19 8 10 1020.7 1020.6 0.0
02/03:30am 8.1 3.7 5.0 81 1.4 S 17 20 9 11 1020.9 1020.8 0.0
02/03:00am 8.4 4.1 5.2 80 1.4 S 17 20 9 11 1021.2 1021.1 0.0
02/02:30am 8.6 4.3 5.2 79 1.5 S 17 20 9 11 1021.3 1021.2 0.0
02/02:00am 9.1 4.8 5.1 76 1.8 S 17 24 9 13 1021.4 1021.3 0.0
02/01:30am 9.4 5.1 5.2 75 1.9 S 17 20 9 11 1021.5 1021.4 0.0
02/01:00am 9.7 5.3 4.9 72 2.2 S 17 20 9 11 1021.4 1021.3 0.0
02/12:30am 10.1 5.8 5.1 71 2.3 SSE 17 20 9 11 1021.6 1021.5 0.0
02/12:00am 10.8 6.5 5.3 69 2.5 SSE 17 20 9 11 1021.9 1021.8 0.0
 
Date/Time
EST
Temp
°C
App
Temp
°C
Dew
Point
°C
Rel
Hum
%
Delta-T
°C
Wind Press
QNH
hPa
Press
MSL
hPa
Rain since
9am
mm
Dir  Spd
km/h
Gust
km/h
Spd
kts
Gust
kts
01/11:30pm 11.1 6.9 5.6 69 2.6 SSE 17 20 9 11 1021.8 1021.7 0.0
01/11:00pm 12.1 7.5 5.7 65 3.0 SSE 19 26 10 14 1021.7 1021.6 0.0
01/10:30pm 13.6 9.5 6.0 60 3.6 SSE 17 24 9 13 1021.7 1021.6 0.0
01/10:00pm 13.6 8.8 5.7 59 3.7 S 20 26 11 14 1021.5 1021.4 0.0
01/09:30pm 13.3 8.4 5.2 58 3.8 S 20 28 11 15 1021.3 1021.2 0.0
01/09:00pm 14.1 9.2 4.9 54 4.3 S 20 28 11 15 1021.1 1021.0 0.0
01/08:30pm 14.8 10.0 4.8 51 4.7 S 19 24 10 13 1020.8 1020.7 0.0
01/08:00pm 15.0 10.2 4.4 49 4.9 S 19 24 10 13 1020.5 1020.4 0.0
01/07:30pm 14.9 10.0 4.0 48 5.0 S 19 24 10 13 1020.3 1020.2 0.0
01/07:00pm 15.7 10.8 4.1 46 5.4 S 19 28 10 15 1020.0 1019.9 0.0
01/06:30pm 16.0 10.8 3.8 44 5.7 S 20 28 11 15 1019.6 1019.5 0.0
01/06:00pm 16.5 11.3 3.6 42 6.0 SSE 20 26 11 14 1019.5 1019.4 0.0
01/05:30pm 16.6 11.4 3.7 42 6.0 S 20 26 11 14 1019.6 1019.5 0.0
01/05:00pm 16.5 10.2 3.9 43 5.9 SSE 26 39 14 21 1019.7 1019.6 0.0
01/04:30pm 17.6 12.5 3.9 40 6.5 SSE 20 30 11 16 1019.6 1019.5 0.0
01/04:00pm 16.6 11.5 3.3 41 6.1 S 19 26 10 14 1019.6 1019.5 0.0
01/03:30pm 16.4 10.1 3.8 43 5.9 S 26 33 14 18 1019.9 1019.8 0.0
01/03:27pm 16.4 9.7 3.8 43 5.9 S 28 48 15 26 1019.9 1019.8 0.0
01/03:00pm 16.7 10.6 2.7 39 6.4 S 24 32 13 17 1020.0 1019.9 0.0
01/02:30pm 16.2 10.5 2.9 41 6.1 S 22 30 12 16 1020.2 1020.1 0.0
01/02:00pm 16.3 10.1 4.4 45 5.6 S 26 37 14 20 1020.4 1020.3 0.0
01/01:30pm 16.3 10.8 4.0 44 5.8 S 22 33 12 18 1020.6 1020.5 0.0
01/01:10pm 16.1 9.6 4.5 46 5.5 S 28 48 15 26 1020.8 1020.7 0.0
01/01:00pm 15.6 8.9 3.4 44 5.6 S 28 37 15 20 1020.9 1020.8 0.0
01/12:30pm 16.3 10.2 5.0 47 5.4 SSE 26 35 14 19 1021.0 1020.9 0.0
01/12:00pm 15.1 9.0 4.8 50 4.8 SSE 26 37 14 20 1021.2 1021.1 0.0
01/11:30am 16.1 9.7 6.8 54 4.6 SSE 30 43 16 23 1021.4 1021.3 0.0
01/11:00am 14.8 9.0 6.1 56 4.2 SSE 26 35 14 19 1021.6 1021.5 0.0
01/10:30am 14.4 8.8 7.2 62 3.5 S 26 41 14 22 1021.6 1021.3 0.0
01/10:00am 12.6 6.9 6.9 68 2.7 S 26 33 14 18 1021.3 1021.0 0.0
01/09:30am 11.8 7.7 7.7 76 2.0 SSW 19 24 10 13 1021.1 1020.8 0.0
01/09:00am 9.5 4.6 6.9 84 1.2 SSW 22 30 12 16 1020.9 1020.6 0.0
01/08:30am 8.7 4.7 6.8 88 0.9 SSW 17 20 9 11 1020.4 1020.1 0.0
01/08:00am 7.3 3.9 5.9 91 0.6 SSW 13 15 7 8 1020.2 1019.9 0.0
01/07:30am 7.9 3.8 6.2 89 0.8 SSW 17 20 9 11 1020.0 1019.7 0.0
01/07:00am 6.8 3.4 5.7 93 0.5 SW 13 15 7 8 1019.9 1019.6 0.0
01/06:30am 5.9 2.3 4.9 93 0.4 SW 13 15 7 8 1019.6 1019.3 0.0
01/06:00am 5.9 2.2 4.5 91 0.6 SW 13 15 7 8 1019.5 1019.2 0.0
01/05:30am 6.2 2.2 4.8 91 0.6 SW 15 19 8 10 1019.2 1018.9 0.0
01/05:00am 6.1 2.5 5.1 93 0.4 SSW 13 17 7 9 1019.0 1018.7 0.0
01/04:30am 6.4 3.2 5.0 91 0.6 SSW 11 13 6 7 1018.9 1018.6 0.0
01/04:00am 7.4 4.0 6.0 91 0.6 SSW 13 13 7 7 1019.1 1018.8 0.0
01/03:30am 7.6 5.0 5.9 89 0.8 SSW 9 11 5 6 1019.2 1018.9 0.0
01/03:00am 9.2 6.1 7.2 87 0.9 SSW 13 15 7 8 1019.1 1018.8 0.0
01/02:30am 9.1 6.1 7.5 90 0.8 S 13 13 7 7 1019.0 1018.7 0.0
01/02:00am 8.7 6.3 6.8 88 0.9 S 9 11 5 6 1019.2 1018.9 0.0
01/01:30am 9.6 6.9 7.5 87 1.0 S 11 11 6 6 1019.1 1018.8 0.0
01/01:00am 9.3 6.6 7.3 87 0.9 S 11 13 6 7 1019.0 1018.7 0.0
01/12:30am 10.1 7.1 7.9 86 1.1 S 13 15 7 8 1019.0 1018.7 0.0
01/12:00am 9.8 7.2 7.6 86 1.1 S 11 13 6 7 1019.0 1018.7 0.0
 
Date/Time
EST
Temp
°C
App
Temp
°C
Dew
Point
°C
Rel
Hum
%
Delta-T
°C
Wind Press
QNH
hPa
Press
MSL
hPa
Rain since
9am
mm
Dir  Spd
km/h
Gust
km/h
Spd
kts
Gust
kts
31/11:30pm 10.2 7.6 7.8 85 1.2 S 11 15 6 8 1018.9 1018.6 0.0
31/11:00pm 11.4 8.1 8.1 80 1.6 S 15 19 8 10 1018.8 1018.5 0.0
31/10:30pm 12.2 8.3 8.5 78 1.8 SSE 19 24 10 13 1018.5 1018.2 0.0
31/10:00pm 13.1 9.1 9.0 76 2.1 SSE 20 28 11 15 1018.2 1017.9 0.0
31/09:30pm 14.3 9.5 8.9 70 2.8 SSE 24 32 13 17 1017.8 1017.5 0.0
31/09:00pm 14.5 8.8 9.9 74 2.4 SSE 30 39 16 21 1017.5 1017.2 0.0
31/08:30pm 15.1 9.8 9.9 71 2.7 SSE 28 37 15 20 1016.7 1016.5 0.0
31/08:00pm 16.5 12.2 10.6 68 3.2 SSW 24 33 13 18 1015.7 1015.5 0.0
31/07:30pm 17.4 12.2 10.1 62 3.9 S 28 39 15 21 1015.1 1014.8 0.0
31/07:00pm 19.3 14.4 8.6 50 5.6 SW 24 30 13 16 1014.4 1014.1 0.0
31/06:30pm 20.0 15.8 8.4 47 6.1 SW 20 26 11 14 1014.2 1013.9 0.0
31/06:00pm 21.0 16.6 8.9 46 6.4 WSW 22 30 12 16 1014.1 1013.8 0.0
31/05:30pm 21.0 17.0 8.9 46 6.4 WSW 20 28 11 15 1013.8 1013.5 0.0
31/05:00pm 21.8 17.4 9.0 44 6.8 WSW 22 28 12 15 1014.0 1013.7 0.0
31/04:30pm 20.9 16.0 8.5 45 6.5 WSW 24 32 13 17 1014.1 1013.8 0.0
31/04:00pm 21.1 16.2 8.4 44 6.7 SW 24 33 13 18 1014.1 1013.8 0.0
31/03:30pm 21.8 16.2 7.2 39 7.6 W 26 41 14 22 1013.8 1013.5 0.0
31/03:00pm 21.6 17.5 8.8 44 6.8 WSW 20 35 11 19 1014.1 1013.8 0.0
31/02:30pm 21.8 17.2 8.3 42 7.1 WSW 22 32 12 17 1014.3 1014.0 0.0
31/02:00pm 20.5 15.2 8.5 46 6.3 WSW 26 35 14 19 1014.7 1014.4 0.0
31/01:30pm 20.5 16.7 9.7 50 5.8 WSW 20 30 11 16 1015.1 1014.8 0.0
31/01:00pm 19.4 15.8 10.4 56 4.9 WSW 20 32 11 17 1015.5 1015.3 0.0
31/12:30pm 17.6 12.5 10.5 63 3.8 WSW 28 37 15 20 1015.8 1015.6 0.0
31/12:00pm 18.6 16.0 12.1 66 3.6 SW 17 26 9 14 1015.7 1015.5 0.0
31/11:30am 15.1 12.5 13.1 88 1.1 SSW 19 24 10 13 1015.9 1015.7 0.0
31/11:00am 16.8 13.6 11.3 70 3.0 WSW 19 26 10 14 1015.9 1015.7 0.0
31/10:30am 16.7 13.6 11.6 72 2.8 WSW 19 28 10 15 1015.9 1015.7 0.0
31/10:00am 15.8 12.8 12.0 78 2.1 WSW 19 22 10 12 1015.7 1015.5 0.0
31/09:30am 15.1 12.6 12.2 83 1.6 W 17 24 9 13 1015.5 1015.3 0.0
31/09:00am 13.6 12.6 12.2 91 0.8 W 9 15 5 8 1015.3 1015.0 0.0
31/08:30am 11.5 10.1 10.9 96 0.3 W 9 13 5 7 1015.2 1014.9 0.0
31/08:00am 10.7 9.5 10.2 97 0.3 W 7 9 4 5 1014.8 1014.5 0.0
31/07:30am 10.1 8.3 9.6 97 0.3 W 9 11 5 6 1014.7 1014.4 0.0
31/07:00am 10.2 8.5 9.7 97 0.3 W 9 13 5 7 1014.4 1014.1 0.0
31/06:30am 10.3 8.6 9.8 97 0.3 WSW 9 13 5 7 1014.0 1013.7 0.0
31/06:00am 10.3 8.6 9.7 96 0.3 WSW 9 11 5 6 1013.8 1013.5 0.0
31/05:30am 10.7 9.4 9.8 94 0.5 WSW 7 11 4 6 1013.4 1013.1 0.0
31/05:00am 11.4 8.7 10.3 93 0.6 WSW 15 17 8 9 1013.4 1013.1 0.0
31/04:30am 12.1 9.4 10.5 90 0.8 WSW 15 19 8 10 1013.3 1013.0 0.0
31/04:00am 12.9 10.4 11.0 88 1.0 WSW 15 19 8 10 1013.4 1013.1 0.0
31/03:30am 12.6 9.6 10.7 88 1.0 WSW 17 24 9 13 1013.5 1013.2 0.0
31/03:00am 11.2 9.0 9.3 88 1.0 WSW 11 11 6 6 1013.5 1013.2 0.0
31/02:30am 10.7 8.4 9.1 90 0.8 WSW 11 13 6 7 1013.2 1012.9 0.0
31/02:00am 10.0 8.2 8.1 88 0.9 WSW 7 9 4 5 1013.1 1012.8 0.0
31/01:30am 10.7 8.3 8.5 86 1.1 WSW 11 13 6 7 1013.3 1013.0 0.0
31/01:00am 11.3 8.5 8.5 83 1.4 WSW 13 15 7 8 1013.6 1013.3 0.0
31/12:30am 11.9 8.4 8.6 80 1.6 WSW 17 20 9 11 1013.7 1013.4 0.0
31/12:00am 12.2 9.1 8.7 79 1.8 WSW 15 20 8 11 1013.6 1013.3 0.0
 
Date/Time
EST
Temp
°C
App
Temp
°C
Dew
Point
°C
Rel
Hum
%
Delta-T
°C
Wind Press
QNH
hPa
Press
MSL
hPa
Rain since
9am
mm
Dir  Spd
km/h
Gust
km/h
Spd
kts
Gust
kts
30/11:30pm 13.2 9.7 8.7 74 2.3 WSW 17 20 9 11 1013.7 1013.4 0.0
30/11:00pm 13.0 10.2 8.5 74 2.3 WSW 13 15 7 8 1013.7 1013.4 0.0
30/10:30pm 13.1 11.0 8.4 73 2.4 WSW 9 11 5 6 1013.6 1013.3 0.0
30/10:00pm 14.2 11.8 8.8 70 2.7 WSW 11 11 6 6 1013.6 1013.3 0.0
30/09:30pm 14.8 12.4 8.7 67 3.1 WSW 11 11 6 6 1013.4 1013.1 0.0
30/09:00pm 16.8 14.6 9.2 61 4.0 WSW 11 15 6 8 1013.3 1013.0 0.0
30/08:30pm 16.9 14.6 9.1 60 4.1 WSW 11 15 6 8 1013.1 1012.8 0.0
30/08:00pm 17.3 14.5 8.7 57 4.5 SW 13 17 7 9 1012.8 1012.5 0.0
30/07:30pm 17.8 14.2 8.4 54 4.9 SW 17 20 9 11 1012.5 1012.2 0.0
30/07:00pm 18.2 14.5 7.9 51 5.3 SW 17 22 9 12 1012.2 1011.9 0.0
30/06:30pm 18.7 14.5 8.1 50 5.5 WSW 20 28 11 15 1012.0 1011.7 0.0
30/06:00pm 19.1 15.1 8.1 49 5.7 WSW 19 28 10 15 1011.8 1011.5 0.0
30/05:30pm 19.0 15.0 8.4 50 5.5 WSW 19 24 10 13 1012.0 1011.7 0.0
30/05:00pm 18.6 14.5 8.6 52 5.2 WSW 20 28 11 15 1012.1 1011.8 0.0
30/04:30pm 19.0 14.5 8.6 51 5.4 WSW 22 28 12 15 1012.2 1011.9 0.0
30/04:00pm 18.4 14.0 8.9 54 5.0 WSW 22 37 12 20 1012.5 1012.2 0.0
30/03:30pm 18.2 14.1 8.5 53 5.0 W 20 33 11 18 1012.5 1012.2 0.0
30/03:00pm 18.9 14.0 8.6 51 5.4 WSW 24 33 13 18 1012.6 1012.3 0.0
30/02:30pm 18.4 12.6 7.8 50 5.4 WSW 28 35 15 19 1012.8 1012.5 0.0
30/02:00pm 18.7 12.8 7.5 48 5.7 WSW 28 35 15 19 1012.9 1012.6 0.0
30/01:30pm 18.7 13.9 7.2 47 5.8 WSW 22 33 12 18 1013.2 1012.9 0.0
30/01:00pm 18.4 13.1 6.9 47 5.8 SW 24 37 13 20 1013.4 1013.1 0.0
30/12:30pm 18.1 13.3 7.5 50 5.4 WSW 22 30 12 16 1013.5 1013.2 0.0
30/12:00pm 17.3 12.5 7.4 52 5.0 SSW 22 33 12 18 1013.7 1013.4 0.0
30/11:30am 16.3 11.3 8.0 58 4.2 SSW 24 32 13 17 1013.8 1013.5 0.0

Other formats

Comma delimited format used in spreadsheet applications
http://www.bom.gov.au/fwo/IDV60801/IDV60801.94920.axf

JavaScript Object Notation format (JSON) in row-major order
http://www.bom.gov.au/fwo/IDV60801/IDV60801.94920.json

Data quality

Most of these data are generated automatically and are frequently updated. Quality checks on data are not normally performed. It is possible for incorrect values to appear. Refer to information at About Latest Weather Observations and please check the disclaimer before using these data.